Time;durP1;ratioP1;P1;durP2;ratioP2;P2;SDS_P1;SDS_P2;PMS_P1;PMS_P2;Temp;Humidity;BMP_temperature;BMP_pressure;BME280_temperature;BME280_humidity;BME280_pressure;Samples;Min_cycle;Max_cycle;Signal;HPM_P1;HPM_P2
2023/06/05 00:00:52;;;;;;;;;;;;;;;20.08;85.33;101278.41;5051661;28;19924;-86
2023/06/05 00:03:19;;;;;;;;;;;;;;;20.03;84.86;101276.25;5066288;28;20390;-84
2023/06/05 00:05:48;;;;;;;;;;;;;;;19.68;88.10;101226.53;5057914;28;20110;-84
2023/06/05 00:08:22;;;;;;;;;;;;;;;19.94;88.06;101274.66;5059601;28;20264;-82
2023/06/05 00:10:49;;;;;;;;;;;;;;;19.92;89.42;101279.38;5042664;28;19936;-86
2023/06/05 00:13:16;;;;;;;;;;;;;;;19.88;89.41;101271.84;5062666;28;20204;-83
2023/06/05 00:15:42;;;;;;;;;;;;;;;19.83;89.21;101270.53;5042702;28;19980;-83
2023/06/05 00:18:09;;;;;;;;;;;;;;;19.82;89.49;101266.16;5084368;28;19994;-84
2023/06/05 00:20:36;;;;;;;;;;;;;;;19.79;89.96;101263.84;5043725;28;19971;-85
2023/06/05 00:23:02;;;;;;;;;;;;;;;19.79;90.26;101263.84;5047209;28;19935;-85
2023/06/05 00:25:29;;;;;;;;;;;;;;;19.79;90.72;101263.84;5044805;28;19928;-85
2023/06/05 00:27:55;;;;;;;;;;;;;;;19.81;90.48;101260.97;5048305;28;19929;-82
2023/06/05 00:30:22;;;;;;;;;;;;;;;19.79;91.27;101263.84;5039879;28;20512;-84
2023/06/05 00:32:49;;;;;;;;;;;;;;;19.75;91.33;101261.69;5081372;28;20160;-84
2023/06/05 00:35:19;;;;;;;;;;;;;;;19.78;89.55;101255.91;5047748;28;20031;-85
2023/06/05 00:37:46;;;;;;;;;;;;;;;19.79;90.65;101258.44;5064806;28;19939;-83
2023/06/05 00:40:15;;;;;;;;;;;;;;;19.76;91.21;101258.81;5075462;28;19932;-84
2023/06/05 00:42:41;;;;;;;;;;;;;;;19.77;92.37;101260.47;5069701;28;20375;-83
2023/06/05 00:45:08;;;;;;;;;;;;;;;19.85;89.52;101259.56;5074074;28;20530;-84
2023/06/05 00:47:35;;;;;;;;;;;;;;;19.92;89.05;101257.00;5046425;28;19931;-84
2023/06/05 00:50:02;;;;;;;;;;;;;;;19.97;86.78;101257.28;5042597;28;19932;-84
2023/06/05 00:52:28;;;;;;;;;;;;;;;20.07;86.40;101255.16;5079166;28;20023;-83
2023/06/05 00:54:58;;;;;;;;;;;;;;;20.13;84.65;101249.06;5050354;28;20221;-83
2023/06/05 00:57:29;;;;;;;;;;;;;;;20.15;84.12;101247.00;4997294;28;20521;-82
2023/06/05 00:59:59;;;;;;;;;;;;;;;20.15;84.17;101252.41;5028695;28;20164;-83
2023/06/05 01:02:27;;;;;;;;;;;;;;;20.07;85.04;101244.38;5069838;28;20239;-85
2023/06/05 01:04:57;;;;;;;;;;;;;;;19.97;88.39;101249.19;5065950;28;20066;-86
2023/06/05 01:07:34;;;;;;;;;;;;;;;19.89;88.47;101241.19;5026920;28;19924;-85
2023/06/05 01:10:08;;;;;;;;;;;;;;;19.79;88.52;101247.66;4994225;28;19947;-85
2023/06/05 01:12:41;;;;;;;;;;;;;;;19.72;87.39;101246.72;5029333;28;20183;-85
2023/06/05 01:15:11;;;;;;;;;;;;;;;19.74;89.17;101239.28;5006096;28;20125;-83
2023/06/05 01:17:38;;;;;;;;;;;;;;;19.70;88.49;101237.16;5037232;28;19924;-83
2023/06/05 01:20:09;;;;;;;;;;;;;;;19.65;89.32;101240.34;5066415;28;19961;-85
2023/06/05 01:22:40;;;;;;;;;;;;;;;19.67;90.10;101241.00;5033213;28;20544;-86
2023/06/05 01:25:13;;;;;;;;;;;;;;;19.66;90.14;101242.03;5029484;28;20312;-86
2023/06/05 01:27:48;;;;;;;;;;;;;;;19.65;90.36;101233.09;5026355;28;19928;-83
2023/06/05 01:30:29;;;;;;;;;;;;;;;19.35;90.45;101190.94;5039751;28;20015;-86
2023/06/05 01:33:12;;;;;;;;;;;;;;;19.65;90.57;101232.25;5025252;28;20119;-84
2023/06/05 01:35:51;;;;;;;;;;;;;;;19.63;90.76;101231.59;5031598;28;19974;-86
2023/06/05 01:38:20;;;;;;;;;;;;;;;19.60;90.50;101237.34;5072040;28;20030;-84
2023/06/05 01:40:52;;;;;;;;;;;;;;;19.63;89.72;101231.59;4999700;28;20030;-86
2023/06/05 01:43:27;;;;;;;;;;;;;;;19.61;89.50;101239.03;5016064;28;20096;-87
2023/06/05 01:46:00;;;;;;;;;;;;;;;19.54;89.37;101221.91;4995876;28;20373;-84
2023/06/05 01:48:28;;;;;;;;;;;;;;;18.99;90.67;101127.78;5009035;28;19928;-86
2023/06/05 01:50:55;;;;;;;;;;;;;;;19.57;90.61;101232.34;5070659;28;19930;-83
2023/06/05 01:53:24;;;;;;;;;;;;;;;19.57;91.83;101229.66;5040138;28;20116;-87
2023/06/05 01:55:57;;;;;;;;;;;;;;;19.58;91.99;101228.63;5025961;28;20678;-86
2023/06/05 01:58:26;;;;;;;;;;;;;;;19.59;92.34;101235.69;5051932;28;19928;-85
2023/06/05 02:01:03;;;;;;;;;;;;;;;19.60;92.87;101229.28;5039705;28;19924;-86
2023/06/05 02:03:30;;;;;;;;;;;;;;;19.64;92.70;101226.03;5069145;28;19924;-85
2023/06/05 02:05:56;;;;;;;;;;;;;;;19.64;91.90;101230.59;5084354;28;20015;-83
2023/06/05 02:08:24;;;;;;;;;;;;;;;19.65;91.19;101230.41;5077959;28;19932;-85
2023/06/05 02:10:52;;;;;;;;;;;;;;;19.72;90.99;101229.72;5084924;28;19928;-85
2023/06/05 02:13:19;;;;;;;;;;;;;;;19.70;90.40;101221.81;5070854;28;19929;-85
2023/06/05 02:15:49;;;;;;;;;;;;;;;19.72;92.05;101224.34;5075039;28;19924;-83
2023/06/05 02:18:16;;;;;;;;;;;;;;;19.80;92.30;101222.41;5043398;28;19935;-85
2023/06/05 02:20:43;;;;;;;;;;;;;;;19.76;90.51;101220.28;5046431;28;20011;-84
2023/06/05 02:23:11;;;;;;;;;;;;;;;19.78;90.49;101219.06;5048435;28;19928;-85
2023/06/05 02:25:37;;;;;;;;;;;;;;;19.73;90.38;101221.44;5048208;28;20523;-85
2023/06/05 02:28:04;;;;;;;;;;;;;;;19.66;91.40;101223.19;5047775;28;19924;-83
2023/06/05 02:30:32;;;;;;;;;;;;;;;19.67;92.13;101219.47;5050517;28;19932;-85
2023/06/05 02:33:00;;;;;;;;;;;;;;;19.63;92.14;101216.28;5039847;28;20015;-84
2023/06/05 02:35:29;;;;;;;;;;;;;;;19.61;92.46;101212.09;5047709;28;19931;-84
2023/06/05 02:37:57;;;;;;;;;;;;;;;19.58;91.69;101207.91;5042711;28;20508;-87
2023/06/05 02:40:24;;;;;;;;;;;;;;;19.59;92.24;101212.28;5044873;28;20439;-85
2023/06/05 02:42:51;;;;;;;;;;;;;;;19.60;92.73;101213.94;5049761;28;19931;-84
2023/06/05 02:45:17;;;;;;;;;;;;;;;19.66;92.72;101209.72;5073828;28;20015;-83
2023/06/05 02:47:44;;;;;;;;;;;;;;;19.56;91.40;101212.63;5071626;28;19932;-85
2023/06/05 02:50:16;;;;;;;;;;;;;;;19.58;92.29;101212.47;5023333;28;19932;-88
2023/06/05 02:52:52;;;;;;;;;;;;;;;19.33;91.67;101161.50;5022987;28;19991;-87
2023/06/05 02:55:24;;;;;;;;;;;;;;;19.58;91.98;101202.50;5013751;28;19929;-88
2023/06/05 02:57:51;;;;;;;;;;;;;;;19.59;92.30;101200.69;5008826;28;20102;-85
2023/06/05 03:00:21;;;;;;;;;;;;;;;19.59;91.85;101198.81;5023586;28;20285;-86
2023/06/05 03:02:48;;;;;;;;;;;;;;;19.56;91.26;101204.56;5019250;28;20385;-83
2023/06/05 03:05:18;;;;;;;;;;;;;;;19.57;91.76;101206.25;4988246;28;19952;-87
2023/06/05 03:07:47;;;;;;;;;;;;;;;19.57;91.93;101205.41;4991450;28;20012;-84
2023/06/05 03:10:14;;;;;;;;;;;;;;;19.19;91.44;101143.44;4988163;28;19925;-88
2023/06/05 03:12:41;;;;;;;;;;;;;;;19.52;91.48;101191.66;4980780;28;19925;-87
2023/06/05 03:15:11;;;;;;;;;;;;;;;19.46;91.04;101197.75;4978433;28;19935;-83
2023/06/05 03:17:38;;;;;;;;;;;;;;;19.49;91.62;101194.69;4992399;28;19983;-85
2023/06/05 03:20:09;;;;;;;;;;;;;;;19.46;91.51;101198.56;4982762;28;20020;-83
2023/06/05 03:22:38;;;;;;;;;;;;;;;19.45;91.42;101196.09;5000944;28;20375;-85
2023/06/05 03:25:05;;;;;;;;;;;;;;;19.51;91.74;101195.34;4971931;28;19925;-85
2023/06/05 03:27:31;;;;;;;;;;;;;;;19.56;91.12;101198.34;4999086;28;20402;-84
2023/06/05 03:29:58;;;;;;;;;;;;;;;19.52;91.45;101192.47;4976199;28;19925;-83
2023/06/05 03:32:25;;;;;;;;;;;;;;;19.51;91.04;101198.03;4996846;28;19936;-83
2023/06/05 03:34:51;;;;;;;;;;;;;;;19.45;91.14;101190.69;4995659;28;20462;-84
2023/06/05 03:37:22;;;;;;;;;;;;;;;19.47;92.17;101185.94;5004228;28;19925;-88
2023/06/05 03:39:57;;;;;;;;;;;;;;;19.48;91.43;101198.41;4984085;28;19932;-87
2023/06/05 03:42:27;;;;;;;;;;;;;;;19.42;90.96;101192.72;4997256;28;19925;-88
2023/06/05 03:44:53;;;;;;;;;;;;;;;19.46;91.67;101198.56;5019127;28;19936;-86
2023/06/05 03:47:20;;;;;;;;;;;;;;;19.48;91.53;101195.72;5003710;28;19929;-81
2023/06/05 03:49:47;;;;;;;;;;;;;;;19.48;91.64;101198.41;4998379;28;19924;-85
2023/06/05 03:52:14;;;;;;;;;;;;;;;19.46;91.68;101195.06;5003064;28;19929;-85
2023/06/05 03:54:44;;;;;;;;;;;;;;;19.43;91.17;101199.78;4999064;28;20116;-84
2023/06/05 03:57:12;;;;;;;;;;;;;;;19.45;91.79;101204.16;4999633;28;20268;-84
2023/06/05 03:59:43;;;;;;;;;;;;;;;19.47;90.41;101204.78;4997390;28;19931;-86
2023/06/05 04:02:09;;;;;;;;;;;;;;;19.43;90.26;101198.94;5016670;28;20054;-85
2023/06/05 04:04:39;;;;;;;;;;;;;;;19.15;90.96;101152.88;5067987;28;20371;-87
2023/06/05 04:07:07;;;;;;;;;;;;;;;19.46;91.48;101203.13;5040726;28;19933;-85
2023/06/05 04:09:34;;;;;;;;;;;;;;;19.50;91.00;101202.59;5074247;28;19925;-84
2023/06/05 04:12:00;;;;;;;;;;;;;;;19.56;89.95;101203.72;5042589;28;19954;-86
2023/06/05 04:14:27;;;;;;;;;;;;;;;19.58;91.46;101202.50;5032567;28;20330;-86
2023/06/05 04:16:53;;;;;;;;;;;;;;;19.62;91.65;101203.84;5079473;28;20070;-85
2023/06/05 04:19:20;;;;;;;;;;;;;;;19.64;91.55;101203.66;5035529;28;19936;-83
2023/06/05 04:21:49;;;;;;;;;;;;;;;19.63;90.78;101199.28;5067650;28;20329;-84
2023/06/05 04:24:15;;;;;;;;;;;;;;;19.60;91.15;101199.66;5039536;28;20425;-87
2023/06/05 04:26:42;;;;;;;;;;;;;;;19.65;90.24;101199.94;5039177;28;19934;-83
2023/06/05 04:29:13;;;;;;;;;;;;;;;19.59;89.91;101209.59;5071411;28;19925;-85
2023/06/05 04:31:45;;;;;;;;;;;;;;;19.48;90.46;101206.50;5041617;28;20030;-84
2023/06/05 04:34:12;;;;;;;;;;;;;;;19.41;91.53;101207.19;5044561;28;20011;-82
2023/06/05 04:36:40;;;;;;;;;;;;;;;19.46;92.18;101208.50;5038147;28;19928;-84
2023/06/05 04:39:14;;;;;;;;;;;;;;;19.52;90.18;101197.03;5025688;28;19924;-85
2023/06/05 04:41:45;;;;;;;;;;;;;;;19.45;90.39;101202.31;5027557;28;19924;-83
2023/06/05 04:44:16;;;;;;;;;;;;;;;19.49;90.75;101197.38;5032870;28;19924;-84
2023/06/05 04:46:43;;;;;;;;;;;;;;;19.56;91.18;101199.16;5033917;28;19929;-84
2023/06/05 04:49:16;;;;;;;;;;;;;;;19.49;88.86;101202.75;5024397;28;19947;-85
2023/06/05 04:51:53;;;;;;;;;;;;;;;19.45;89.20;101201.47;5030202;28;20518;-85
2023/06/05 04:54:25;;;;;;;;;;;;;;;19.52;89.43;101194.34;5020431;28;19928;-86
2023/06/05 04:57:01;;;;;;;;;;;;;;;19.56;90.08;101198.34;5042289;28;20027;-85
2023/06/05 04:59:32;;;;;;;;;;;;;;;19.59;90.12;101195.31;5023110;28;20036;-85
2023/06/05 05:01:59;;;;;;;;;;;;;;;19.59;88.82;101198.81;5013860;28;19929;-84
2023/06/05 05:04:26;;;;;;;;;;;;;;;19.64;89.42;101195.59;5013737;28;20382;-84
2023/06/05 05:07:00;;;;;;;;;;;;;;;19.64;88.67;101192.91;5013222;28;20073;-83
2023/06/05 05:09:28;;;;;;;;;;;;;;;19.59;89.26;101190.75;5020362;28;19924;-83
2023/06/05 05:11:57;;;;;;;;;;;;;;;19.62;88.38;101192.25;5016082;28;20209;-86
2023/06/05 05:14:29;;;;;;;;;;;;;;;19.63;87.64;101200.13;5030669;28;20267;-85
2023/06/05 05:16:56;;;;;;;;;;;;;;;19.61;88.54;101198.63;5072820;28;19924;-83
2023/06/05 05:19:22;;;;;;;;;;;;;;;19.73;88.27;101199.91;5048534;28;20378;-84
2023/06/05 05:21:49;;;;;;;;;;;;;;;19.81;88.88;101202.53;5051377;28;19924;-83
2023/06/05 05:24:16;;;;;;;;;;;;;;;19.79;88.19;101198.34;5045333;28;19936;-85
2023/06/05 05:26:43;;;;;;;;;;;;;;;19.79;87.95;101211.81;5050472;28;20040;-83
2023/06/05 05:29:09;;;;;;;;;;;;;;;19.77;87.85;101201.22;5075024;28;19924;-85
2023/06/05 05:31:36;;;;;;;;;;;;;;;19.71;88.04;101206.47;5017312;28;19964;-84
2023/06/05 05:34:03;;;;;;;;;;;;;;;19.42;88.27;101160.41;5030882;28;19928;-85
2023/06/05 05:36:29;;;;;;;;;;;;;;;19.68;88.35;101206.84;5010262;28;19925;-86
2023/06/05 05:38:56;;;;;;;;;;;;;;;19.67;89.05;101211.38;5011814;28;20389;-85
2023/06/05 05:41:23;;;;;;;;;;;;;;;19.62;89.13;101203.00;5017556;28;20114;-86
2023/06/05 05:43:49;;;;;;;;;;;;;;;19.69;88.78;101209.38;5036824;28;19928;-84
2023/06/05 05:46:16;;;;;;;;;;;;;;;19.70;88.51;101219.13;5034898;28;19931;-84
2023/06/05 05:48:43;;;;;;;;;;;;;;;19.75;88.63;101222.09;5043951;28;19925;-87
2023/06/05 05:51:12;;;;;;;;;;;;;;;19.41;87.95;101168.66;5058197;28;20152;-86
2023/06/05 05:53:42;;;;;;;;;;;;;;;19.72;86.68;101217.09;5072733;28;20046;-85
2023/06/05 05:56:08;;;;;;;;;;;;;;;19.39;86.85;101171.56;5033815;28;20687;-87
2023/06/05 05:58:39;;;;;;;;;;;;;;;19.26;87.00;101144.41;5042254;28;19924;-87
2023/06/05 06:01:07;;;;;;;;;;;;;;;19.76;87.54;101228.34;5013003;28;20259;-86
2023/06/05 06:03:37;;;;;;;;;;;;;;;19.79;87.46;101226.13;5029109;28;20509;-86
2023/06/05 06:06:07;;;;;;;;;;;;;;;19.81;87.95;101229.47;5041197;28;19967;-84
2023/06/05 06:08:34;;;;;;;;;;;;;;;19.81;87.28;101231.34;5048992;28;19925;-85
2023/06/05 06:11:06;;;;;;;;;;;;;;;19.88;86.02;101226.03;5031653;28;20021;-87
2023/06/05 06:13:36;;;;;;;;;;;;;;;19.84;87.26;101223.72;5001619;28;19924;-86
2023/06/05 06:16:17;;;;;;;;;;;;;;;19.98;87.56;101230.16;5023592;28;19955;-85
2023/06/05 06:18:44;;;;;;;;;;;;;;;20.02;87.99;101228.75;5043162;28;19956;-84
2023/06/05 06:21:12;;;;;;;;;;;;;;;20.11;86.79;101229.53;5042629;28;20401;-85
2023/06/05 06:23:38;;;;;;;;;;;;;;;20.04;85.97;101228.59;5040999;28;19924;-84
2023/06/05 06:26:07;;;;;;;;;;;;;;;19.93;85.41;101237.09;5044851;28;19954;-82
2023/06/05 06:28:34;;;;;;;;;;;;;;;19.89;86.82;101231.25;5047811;28;19963;-84
2023/06/05 06:31:01;;;;;;;;;;;;;;;19.97;86.58;101222.25;5062000;28;20032;-82
2023/06/05 06:33:29;;;;;;;;;;;;;;;19.97;84.57;101227.63;5080044;28;19925;-82
2023/06/05 06:36:00;;;;;;;;;;;;;;;19.82;86.47;101231.13;5039848;28;20317;-86
2023/06/05 06:38:30;;;;;;;;;;;;;;;19.88;87.92;101229.59;5055325;28;20022;-86
2023/06/05 06:40:57;;;;;;;;;;;;;;;19.92;86.34;101230.03;5045544;28;20331;-84
2023/06/05 06:43:25;;;;;;;;;;;;;;;19.85;85.60;101233.50;5024124;28;19928;-82
2023/06/05 06:45:52;;;;;;;;;;;;;;;19.93;86.60;101229.88;5057552;28;19924;-84
2023/06/05 06:48:20;;;;;;;;;;;;;;;20.10;85.33;101233.25;5032884;28;19934;-83
2023/06/05 06:50:47;;;;;;;;;;;;;;;19.75;86.17;101187.09;5037697;28;19963;-84
2023/06/05 06:53:16;;;;;;;;;;;;;;;20.08;87.87;101232.59;5039458;28;20300;-85
2023/06/05 06:55:42;;;;;;;;;;;;;;;20.02;85.21;101234.16;5002689;28;19964;-84
2023/06/05 06:58:11;;;;;;;;;;;;;;;20.08;85.36;101237.16;5022027;28;19929;-86
2023/06/05 07:00:38;;;;;;;;;;;;;;;20.21;85.16;101240.03;5054560;28;20221;-83
2023/06/05 07:03:05;;;;;;;;;;;;;;;20.10;83.27;101235.94;5052785;28;19925;-83
2023/06/05 07:05:32;;;;;;;;;;;;;;;20.09;84.47;101236.94;5011585;28;20245;-86
2023/06/05 07:08:00;;;;;;;;;;;;;;;20.15;86.14;101230.84;5012863;28;19951;-85
2023/06/05 07:10:30;;;;;;;;;;;;;;;20.20;83.27;101233.00;4980534;28;20193;-86
2023/06/05 07:12:58;;;;;;;;;;;;;;;20.22;82.87;101241.69;5012911;28;19924;-83
2023/06/05 07:15:46;;;;;;;;;;;;;;;20.28;83.06;101239.13;5005660;28;20015;-84
2023/06/05 07:18:13;;;;;;;;;;;;;;;20.30;81.79;101238.94;5008156;28;19994;-84
2023/06/05 07:20:45;;;;;;;;;;;;;;;20.11;80.53;101185.56;4972891;28;20325;-84
2023/06/05 07:23:12;;;;;;;;;;;;;;;20.32;80.84;101233.38;4983307;28;20326;-83
2023/06/05 07:25:44;;;;;;;;;;;;;;;20.31;81.92;101234.38;5041500;28;20394;-85
2023/06/05 07:28:18;;;;;;;;;;;;;;;20.41;81.61;101229.53;5016703;28;20520;-83
2023/06/05 07:30:45;;;;;;;;;;;;;;;20.42;81.08;101221.28;5070243;28;20309;-86
2023/06/05 07:33:11;;;;;;;;;;;;;;;20.40;79.36;101226.00;5057937;28;19954;-83
2023/06/05 07:35:57;;;;;;;;;;;;;;;20.20;79.80;101188.00;5045408;28;20108;-85
2023/06/05 07:38:32;;;;;;;;;;;;;;;20.45;78.69;101225.47;5027452;28;19948;-86
2023/06/05 07:41:01;;;;;;;;;;;;;;;20.53;78.97;101222.66;5019464;28;19928;-81
2023/06/05 07:43:28;;;;;;;;;;;;;;;20.58;78.62;101227.53;5031553;28;19925;-84
2023/06/05 07:45:55;;;;;;;;;;;;;;;20.49;79.38;101221.38;4990443;28;19925;-83
2023/06/05 07:48:23;;;;;;;;;;;;;;;20.62;80.01;101226.97;5047714;28;20128;-83
2023/06/05 07:50:50;;;;;;;;;;;;;;;20.62;80.00;101226.97;5017762;28;19928;-85
2023/06/05 07:53:18;;;;;;;;;;;;;;;20.66;76.87;101228.28;5023967;28;20441;-86
2023/06/05 07:55:45;;;;;;;;;;;;;;;20.77;77.47;101226.94;5061978;28;19932;-85
2023/06/05 07:58:12;;;;;;;;;;;;;;;20.65;78.04;101226.59;5061978;28;19928;-84
2023/06/05 08:00:43;;;;;;;;;;;;;;;20.64;78.75;101224.91;5039932;28;19924;-84
2023/06/05 08:03:10;;;;;;;;;;;;;;;20.77;78.32;101224.25;5039412;28;19924;-83
2023/06/05 08:05:38;;;;;;;;;;;;;;;20.70;78.58;101226.88;5043917;28;19936;-81
2023/06/05 08:08:06;;;;;;;;;;;;;;;20.78;80.15;101227.78;5027962;28;20302;-85
2023/06/05 08:10:33;;;;;;;;;;;;;;;20.52;81.93;101177.84;4987447;28;19931;-84
2023/06/05 08:13:00;;;;;;;;;;;;;;;20.73;80.71;101225.66;5054179;28;19928;-82
2023/06/05 08:15:26;;;;;;;;;;;;;;;20.80;82.64;101225.72;5023604;28;19947;-80
2023/06/05 08:17:53;;;;;;;;;;;;;;;20.90;79.90;101226.28;4996674;28;20122;-83
2023/06/05 08:20:20;;;;;;;;;;;;;;;20.98;79.17;101226.16;4979172;28;19924;-81
2023/06/05 08:22:49;;;;;;;;;;;;;;;20.86;79.33;101220.41;5000218;28;20345;-85
2023/06/05 08:25:18;;;;;;;;;;;;;;;20.69;79.55;101190.13;5008483;28;20052;-85
2023/06/05 08:27:44;;;;;;;;;;;;;;;20.99;80.17;101225.13;5021349;28;19932;-83
2023/06/05 08:30:17;;;;;;;;;;;;;;;21.04;78.96;101228.09;5006199;28;20125;-84
2023/06/05 08:32:43;;;;;;;;;;;;;;;21.03;77.25;101223.72;5055187;28;19982;-85
2023/06/05 08:35:12;;;;;;;;;;;;;;;21.04;77.86;101225.38;5045413;28;19928;-84
2023/06/05 08:37:39;;;;;;;;;;;;;;;21.12;76.99;101224.47;5018743;28;20440;-84
2023/06/05 08:40:08;;;;;;;;;;;;;;;21.17;76.36;101224.72;5049998;28;19956;-85
2023/06/05 08:42:34;;;;;;;;;;;;;;;21.19;76.60;101227.22;5048471;28;19935;-86
2023/06/05 08:45:01;;;;;;;;;;;;;;;21.15;78.57;101225.94;5039911;28;19925;-83
2023/06/05 08:47:32;;;;;;;;;;;;;;;21.15;79.10;101226.78;5002461;28;20185;-84
2023/06/05 08:50:02;;;;;;;;;;;;;;;21.17;78.64;101230.13;5012039;28;19976;-85
2023/06/05 08:52:32;;;;;;;;;;;;;;;21.22;79.52;101222.28;5032374;28;20449;-85
2023/06/05 08:55:00;;;;;;;;;;;;;;;21.00;80.07;101226.81;5007678;28;19929;-82
2023/06/05 08:57:28;;;;;;;;;;;;;;;20.76;81.15;101233.38;5003782;28;20516;-85
2023/06/05 08:59:55;;;;;;;;;;;;;;;20.57;82.70;101242.88;5045264;28;20262;-82
2023/06/05 09:02:22;;;;;;;;;;;;;;;20.61;83.39;101232.56;4993848;28;19956;-84
2023/06/05 09:04:51;;;;;;;;;;;;;;;20.42;83.44;101231.22;5041334;28;20035;-85
2023/06/05 09:07:18;;;;;;;;;;;;;;;20.46;83.33;101237.91;5008295;28;19929;-83
2023/06/05 09:09:50;;;;;;;;;;;;;;;20.07;83.19;101185.09;4992946;28;19931;-86
2023/06/05 09:12:17;;;;;;;;;;;;;;;20.34;83.46;101239.38;4999950;28;19935;-84
2023/06/05 09:14:47;;;;;;;;;;;;;;;20.27;83.93;101240.16;4993108;28;19956;-85
2023/06/05 09:17:21;;;;;;;;;;;;;;;20.39;84.79;101245.06;4992801;28;20776;-84
2023/06/05 09:19:48;;;;;;;;;;;;;;;20.45;82.92;101241.63;5002956;28;19931;-83
2023/06/05 09:22:16;;;;;;;;;;;;;;;20.28;83.07;101247.19;5044690;28;19931;-83
2023/06/05 09:25:09;;;;;;;;;;;;;;;20.27;83.51;101247.41;5032212;28;19928;-86
2023/06/05 09:28:19;;;;;;;;;;;;;;;20.19;83.13;101253.69;5037626;28;19957;-82
2023/06/05 09:30:59;;;;;;;;;;;;;;;20.09;84.17;101258.50;5008321;28;19956;-85
2023/06/05 09:33:30;;;;;;;;;;;;;;;19.93;84.47;101250.56;5003131;28;20140;-81
2023/06/05 09:36:10;;;;;;;;;;;;;;;19.89;86.63;101249.28;5028723;28;20011;-82
2023/06/05 09:38:40;;;;;;;;;;;;;;;19.97;85.65;101250.03;5011654;28;19956;-82
2023/06/05 09:41:08;;;;;;;;;;;;;;;19.89;87.67;101251.97;5038837;28;19940;-81
2023/06/05 09:43:37;;;;;;;;;;;;;;;19.88;86.96;101240.38;5023490;28;19924;-81
2023/06/05 09:49:24;;;;;;;;;;;;;;;19.90;87.70;101242.84;5040144;28;19929;-85
2023/06/05 09:55:28;;;;;;;;;;;;;;;19.92;89.30;101240.81;4992683;28;20329;-86
2023/06/05 09:57:58;;;;;;;;;;;;;;;19.91;91.11;101244.56;5044327;28;19928;-86
2023/06/05 10:00:25;;;;;;;;;;;;;;;19.94;89.63;101250.41;5037870;28;19931;-87
2023/06/05 10:02:52;;;;;;;;;;;;;;;19.94;90.12;101238.78;5066971;28;19929;-88
2023/06/05 10:05:19;;;;;;;;;;;;;;;19.90;89.14;101237.47;5028916;28;19928;-87
2023/06/05 10:07:53;;;;;;;;;;;;;;;19.94;89.63;101245.00;5033065;28;19928;-88
2023/06/05 10:10:26;;;;;;;;;;;;;;;19.97;89.63;101243.81;5021736;28;19931;-89
2023/06/05 10:12:57;;;;;;;;;;;;;;;19.98;89.96;101237.41;5021712;28;19925;-88
2023/06/05 10:15:26;;;;;;;;;;;;;;;19.98;89.63;101240.94;5028423;28;20317;-87
2023/06/05 10:17:54;;;;;;;;;;;;;;;20.01;89.29;101239.72;5033604;28;20573;-87
2023/06/05 10:20:27;;;;;;;;;;;;;;;20.02;89.24;101238.69;5047260;28;19924;-88
2023/06/05 10:22:55;;;;;;;;;;;;;;;20.03;90.58;101233.13;5028310;28;19932;-88
2023/06/05 10:25:23;;;;;;;;;;;;;;;20.08;89.66;101234.47;5022757;28;19935;-87
2023/06/05 10:27:57;;;;;;;;;;;;;;;20.12;89.83;101241.13;5037274;28;20167;-89
2023/06/05 10:30:43;;;;;;;;;;;;;;;20.21;88.81;101243.56;5075124;28;20156;-90
2023/06/05 10:33:33;;;;;;;;;;;;;;;20.23;88.58;101244.22;5038213;28;19976;-89
2023/06/05 10:36:10;;;;;;;;;;;;;;;20.24;89.37;101245.06;5032690;28;20434;-89
2023/06/05 10:38:37;;;;;;;;;;;;;;;20.21;88.13;101238.16;5031391;28;19964;-89
2023/06/05 10:41:05;;;;;;;;;;;;;;;20.25;88.24;101236.78;5051426;28;20307;-85
2023/06/05 10:43:47;;;;;;;;;;;;;;;20.23;87.49;101243.41;5060071;28;20125;-86
2023/06/05 10:46:26;;;;;;;;;;;;;;;20.24;85.43;101239.66;5045423;28;19924;-87
2023/06/05 10:49:10;;;;;;;;;;;;;;;20.25;87.22;101236.78;5026583;28;20296;-82
2023/06/05 10:51:47;;;;;;;;;;;;;;;20.33;87.80;101224.25;5066235;28;20273;-85
2023/06/05 10:54:19;;;;;;;;;;;;;;;20.38;88.64;101229.91;5076638;28;19952;-86
2023/06/05 10:56:53;;;;;;;;;;;;;;;20.52;89.86;101234.47;5029841;28;20212;-87
2023/06/05 10:59:21;;;;;;;;;;;;;;;20.65;90.24;101236.53;5042932;28;19924;-87
2023/06/05 11:02:08;;;;;;;;;;;;;;;20.81;83.93;101230.13;5071435;28;20431;-86
2023/06/05 11:04:47;;;;;;;;;;;;;;;21.09;86.90;101223.00;5036239;28;20505;-86
2023/06/05 11:07:18;;;;;;;;;;;;;;;21.23;83.30;101229.34;5032742;28;20162;-88
2023/06/05 11:10:04;;;;;;;;;;;;;;;21.27;81.91;101224.41;4996122;28;20173;-88
2023/06/05 11:12:41;;;;;;;;;;;;;;;21.29;81.32;101216.97;5005016;28;20025;-87
2023/06/05 11:15:17;;;;;;;;;;;;;;;21.06;85.07;101171.22;4968759;28;20073;-85
2023/06/05 11:17:50;;;;;;;;;;;;;;;21.47;82.49;101216.53;4999004;28;19924;-84
2023/06/05 11:20:23;;;;;;;;;;;;;;;21.55;84.51;101213.69;5005382;28;20219;-82
2023/06/05 11:22:53;;;;;;;;;;;;;;;21.67;80.30;101216.72;5018088;28;19935;-84
2023/06/05 11:25:21;;;;;;;;;;;;;;;21.74;80.39;101209.50;5019864;28;19940;-84
2023/06/05 11:27:52;;;;;;;;;;;;;;;21.79;77.97;101212.44;5019070;28;19924;-86
2023/06/05 11:30:29;;;;;;;;;;;;;;;21.71;79.66;101188.28;5059583;28;19931;-85
2023/06/05 11:33:16;;;;;;;;;;;;;;;21.96;78.28;101213.81;4985950;28;19967;-86
2023/06/05 11:35:52;;;;;;;;;;;;;;;22.00;77.84;101208.03;5001724;28;20144;-84
2023/06/05 11:38:22;;;;;;;;;;;;;;;22.05;77.99;101211.81;5013219;28;20374;-86
2023/06/05 11:40:55;;;;;;;;;;;;;;;21.83;76.32;101208.34;5007436;28;20270;-85
2023/06/05 11:43:25;;;;;;;;;;;;;;;21.83;79.76;101208.34;4981926;28;20002;-87
2023/06/05 11:45:53;;;;;;;;;;;;;;;21.71;79.59;101201.78;5007656;28;19963;-86
2023/06/05 11:48:21;;;;;;;;;;;;;;;21.72;81.55;101203.44;4961000;28;20277;-84
2023/06/05 11:50:52;;;;;;;;;;;;;;;21.73;80.74;101199.72;5011569;28;20011;-83
2023/06/05 11:53:18;;;;;;;;;;;;;;;21.66;78.88;101198.84;5011172;28;19924;-83
2023/06/05 11:58:24;;;;;;;;;;;;;;;21.70;80.38;101197.41;5030118;28;20011;-83
2023/06/05 12:01:12;;;;;;;;;;;;;;;21.78;78.73;101191.88;5030547;28;20023;-82
2023/06/05 12:03:39;;;;;;;;;;;;;;;21.81;78.01;101193.34;5039570;28;20403;-84
2023/06/05 12:06:06;;;;;;;;;;;;;;;21.78;74.86;101194.56;5040670;28;20376;-85
2023/06/05 12:08:36;;;;;;;;;;;;;;;21.91;73.88;101188.44;5073197;28;20523;-85
2023/06/05 12:11:04;;;;;;;;;;;;;;;22.25;74.06;101184.94;5057703;28;20003;-82
2023/06/05 12:13:51;;;;;;;;;;;;;;;22.61;73.77;101184.69;5054400;28;19924;-84
2023/06/05 12:16:18;;;;;;;;;;;;;;;23.17;70.67;101183.66;5046920;28;19924;-85
2023/06/05 12:18:47;;;;;;;;;;;;;;;23.37;68.53;101178.25;5026968;28;19928;-84
2023/06/05 12:21:22;;;;;;;;;;;;;;;23.63;69.16;101171.19;5034394;28;19947;-85
2023/06/05 12:24:02;;;;;;;;;;;;;;;24.10;67.58;101177.41;5035584;28;20306;-85
2023/06/05 12:26:58;;;;;;;;;;;;;;;24.24;64.39;101170.09;5059023;28;19925;-83
2023/06/05 12:29:27;;;;;;;;;;;;;;;24.60;67.10;101174.16;5023291;28;19925;-83
2023/06/05 12:31:56;;;;;;;;;;;;;;;24.77;66.42;101180.78;5069057;28;19925;-83
2023/06/05 12:34:56;;;;;;;;;;;;;;;24.85;65.13;101179.69;5068603;28;19950;-83
2023/06/05 12:37:39;;;;;;;;;;;;;;;24.15;62.78;101126.06;4962309;28;20526;-84
2023/06/05 12:40:10;;;;;;;;;;;;;;;24.44;63.91;101173.59;5046795;28;20417;-81
2023/06/05 12:42:38;;;;;;;;;;;;;;;24.51;61.48;101173.56;5011477;28;19936;-84
2023/06/05 12:45:06;;;;;;;;;;;;;;;24.68;63.89;101168.50;5041826;28;19947;-82
2023/06/05 12:47:48;;;;;;;;;;;;;;;24.85;61.69;101161.50;5043656;28;19924;-82
2023/06/05 12:50:19;;;;;;;;;;;;;;;25.01;61.54;101167.50;5039379;28;20367;-85
2023/06/05 12:52:46;;;;;;;;;;;;;;;25.00;60.43;101160.38;5026496;28;20019;-81
2023/06/05 12:55:13;;;;;;;;;;;;;;;25.09;60.04;101165.31;5014564;28;19929;-82
2023/06/05 12:57:41;;;;;;;;;;;;;;;25.15;61.25;101159.03;5011579;28;19925;-81
2023/06/05 13:00:13;;;;;;;;;;;;;;;25.14;58.15;101157.34;5043207;28;19936;-81